createdAt,value
2018-06-21T00:03:09.164Z,3.67
2018-06-21T00:08:03.698Z,3.67
2018-06-21T00:12:58.775Z,3.40
2018-06-21T00:17:53.324Z,3.30
2018-06-21T00:22:47.923Z,3.50
2018-06-21T00:27:42.526Z,3.57
2018-06-21T00:32:37.468Z,3.33
2018-06-21T00:37:32.117Z,3.30
2018-06-21T00:42:26.853Z,3.80
2018-06-21T00:47:21.432Z,4.00
2018-06-21T00:52:15.970Z,3.40
2018-06-21T00:57:10.476Z,3.90
2018-06-21T01:02:04.945Z,3.90
2018-06-21T01:06:59.434Z,4.03
2018-06-21T01:11:53.885Z,4.10
2018-06-21T01:16:48.430Z,4.20
2018-06-21T01:21:42.953Z,4.00
2018-06-21T01:26:37.483Z,4.10
2018-06-21T01:31:31.986Z,4.17
2018-06-21T01:36:26.589Z,4.00
2018-06-21T01:41:21.097Z,4.17
2018-06-21T01:46:15.561Z,4.00
2018-06-21T01:51:09.989Z,4.10
2018-06-21T01:56:04.532Z,3.90
2018-06-21T02:00:59.129Z,4.40
2018-06-21T02:05:53.598Z,3.90
2018-06-21T02:10:48.069Z,4.27
2018-06-21T02:15:42.545Z,4.27
2018-06-21T02:20:37.020Z,3.87
2018-06-21T02:25:31.624Z,4.07
2018-06-21T02:30:26.086Z,4.10
2018-06-21T02:35:20.545Z,4.03
2018-06-21T02:40:15.056Z,4.40
2018-06-21T02:45:09.571Z,4.40
2018-06-21T02:50:04.163Z,4.40
2018-06-21T02:54:58.646Z,4.63
2018-06-21T02:59:53.161Z,4.17
2018-06-21T03:04:47.605Z,4.97
2018-06-21T03:09:42.052Z,5.07
2018-06-21T03:14:36.508Z,4.60
2018-06-21T03:19:30.976Z,4.93
2018-06-21T03:24:25.765Z,4.70
2018-06-21T03:29:19.950Z,4.90
2018-06-21T03:34:14.418Z,5.43
2018-06-21T03:39:08.965Z,4.67
2018-06-21T03:44:03.388Z,4.70
2018-06-21T03:48:57.891Z,5.00
2018-06-21T03:53:52.468Z,5.23
2018-06-21T03:58:47.088Z,4.33
2018-06-21T04:03:41.821Z,4.00
2018-06-21T04:08:36.293Z,4.15
2018-06-21T04:13:30.812Z,4.03
2018-06-21T04:18:29.540Z,3.98
2018-06-21T04:23:24.107Z,4.30
2018-06-21T04:28:18.590Z,4.30
2018-06-21T04:33:13.163Z,3.80
2018-06-21T04:38:07.677Z,4.67
2018-06-21T04:43:02.180Z,4.50
2018-06-21T04:47:56.629Z,4.05
2018-06-21T04:52:51.097Z,4.30
2018-06-21T04:57:45.573Z,4.10
2018-06-21T05:02:40.007Z,4.10
2018-06-21T05:07:34.480Z,4.12
2018-06-21T05:12:28.998Z,4.17
2018-06-21T05:17:23.709Z,4.40
2018-06-21T05:22:18.165Z,3.83
2018-06-21T05:27:12.730Z,4.28
2018-06-21T05:32:07.261Z,4.12
2018-06-21T05:37:01.731Z,3.75
2018-06-21T05:41:56.534Z,3.95
2018-06-21T05:46:50.952Z,4.10
2018-06-21T05:51:45.660Z,3.70
2018-06-21T05:56:40.156Z,3.67
2018-06-21T06:01:35.771Z,3.50
2018-06-21T06:06:31.074Z,3.87
2018-06-21T06:11:26.583Z,4.05
2018-06-21T06:16:21.211Z,4.33
2018-06-21T06:21:16.002Z,4.78
2018-06-21T06:26:11.576Z,4.78
2018-06-21T06:31:07.078Z,4.90
2018-06-21T06:36:01.855Z,5.33
2018-06-21T06:40:57.192Z,5.03
2018-06-21T06:55:03.436Z,4.78
2018-06-21T06:59:58.199Z,5.10
2018-06-21T07:04:53.366Z,4.55
2018-06-21T07:09:47.857Z,4.72
2018-06-21T07:14:42.864Z,4.62
2018-06-21T07:19:38.481Z,5.12
2018-06-21T07:24:33.248Z,5.20
2018-06-21T07:29:27.708Z,5.20
2018-06-21T07:34:22.558Z,5.37
2018-06-21T07:39:17.132Z,5.03
2018-06-21T07:44:12.253Z,5.05
2018-06-21T07:49:06.884Z,5.97
2018-06-21T07:54:01.430Z,5.22
2018-06-21T07:58:55.995Z,5.33
2018-06-21T08:03:57.312Z,4.97
2018-06-21T08:08:55.249Z,4.70
2018-06-21T08:13:50.019Z,4.83
2018-06-21T08:18:55.026Z,4.58
2018-06-21T08:23:50.057Z,5.17
2018-06-21T08:28:44.747Z,4.78
2018-06-21T08:33:39.693Z,4.78
2018-06-21T08:38:35.090Z,4.60
2018-06-21T08:43:29.575Z,4.08
2018-06-21T08:48:24.042Z,4.75
2018-06-21T08:53:18.581Z,4.30
2018-06-21T08:58:25.421Z,4.37
2018-06-21T09:03:22.225Z,3.90
2018-06-21T09:08:17.437Z,4.25
2018-06-21T09:13:11.975Z,3.62
2018-06-21T09:18:15.604Z,3.98
2018-06-21T09:23:10.500Z,3.75
2018-06-21T09:28:05.320Z,3.98
2018-06-21T09:32:59.888Z,3.92
2018-06-21T09:37:59.712Z,4.00
2018-06-21T09:42:59.652Z,3.98
2018-06-21T09:47:59.529Z,4.12
2018-06-21T09:52:54.037Z,4.05
2018-06-21T09:57:48.491Z,4.10
2018-06-21T10:02:45.777Z,3.87
2018-06-21T10:07:51.459Z,3.52
2018-06-21T10:12:48.496Z,3.87
2018-06-21T10:17:43.337Z,4.15
2018-06-21T10:22:37.815Z,3.80
2018-06-21T10:27:32.246Z,3.92
2018-06-21T10:32:26.730Z,3.52
2018-06-21T10:37:21.135Z,3.30
2018-06-21T10:42:21.625Z,3.45
2018-06-21T10:47:16.508Z,3.30
2018-06-21T10:52:11.050Z,3.08
2018-06-21T10:57:06.897Z,3.37
2018-06-21T11:02:01.471Z,3.12
2018-06-21T11:06:55.623Z,3.45
2018-06-21T11:11:50.917Z,3.50
2018-06-21T11:16:46.520Z,2.98
2018-06-21T11:21:41.056Z,3.30
2018-06-21T11:26:35.659Z,3.02
2018-06-21T11:31:30.512Z,3.08
2018-06-21T11:36:25.238Z,2.98
2018-06-21T11:41:19.636Z,2.50
2018-06-21T11:46:14.088Z,2.92
2018-06-21T11:51:08.525Z,2.45
2018-06-21T11:56:03.352Z,2.52
2018-06-21T12:00:58.663Z,2.50
2018-06-21T12:05:53.695Z,2.40
2018-06-21T12:10:49.718Z,2.30
2018-06-21T12:15:45.447Z,2.20
2018-06-21T12:20:40.006Z,1.95
2018-06-21T12:25:34.832Z,2.25
2018-06-21T12:30:29.756Z,2.00
2018-06-21T12:35:25.090Z,2.00
2018-06-21T12:40:20.634Z,2.12
2018-06-21T12:45:15.053Z,2.50
2018-06-21T12:50:09.482Z,1.90
2018-06-21T12:55:04.365Z,1.82
2018-06-21T12:59:59.668Z,1.90
2018-06-21T13:04:54.555Z,2.20
2018-06-21T13:10:06.360Z,2.60
2018-06-21T13:15:02.265Z,2.40
2018-06-21T13:19:57.767Z,2.60
2018-06-21T13:24:53.357Z,2.35
2018-06-21T13:29:49.081Z,2.52
2018-06-21T13:34:44.574Z,2.90
2018-06-21T13:39:46.723Z,2.50
2018-06-21T13:44:42.434Z,2.12
2018-06-21T13:49:46.018Z,2.40
2018-06-21T13:54:41.190Z,2.60
2018-06-21T13:59:35.666Z,2.60
2018-06-21T14:04:30.130Z,2.50
2018-06-21T14:09:27.553Z,2.50
2018-06-21T14:14:22.005Z,2.40
2018-06-21T14:19:16.540Z,2.40
2018-06-21T14:24:12.855Z,2.65
2018-06-21T14:29:08.020Z,2.45
2018-06-21T14:34:02.477Z,2.30
2018-06-21T14:38:57.133Z,2.62
2018-06-21T14:43:51.588Z,2.30
2018-06-21T14:48:46.099Z,2.62
2018-06-21T14:53:46.256Z,2.47
2018-06-21T14:58:41.548Z,2.42
2018-06-21T15:03:36.023Z,2.52
2018-06-21T15:08:30.486Z,2.58
2018-06-21T15:13:24.921Z,2.50
2018-06-21T15:18:19.800Z,2.47
2018-06-21T15:23:14.311Z,2.30
2018-06-21T15:28:08.688Z,2.40
2018-06-21T15:33:03.168Z,2.70
2018-06-21T15:37:57.721Z,2.37
2018-06-21T15:42:52.223Z,2.60
2018-06-21T15:47:46.802Z,2.60
2018-06-21T15:52:41.038Z,2.40
2018-06-21T15:57:36.318Z,2.10
2018-06-21T16:02:31.241Z,2.47
2018-06-21T16:07:26.004Z,2.37
2018-06-21T16:12:20.608Z,2.30
2018-06-21T16:17:23.127Z,2.30
2018-06-21T16:22:17.704Z,2.30
2018-06-21T16:27:12.298Z,2.22
2018-06-21T16:32:06.992Z,2.50
2018-06-21T16:37:01.656Z,2.52
2018-06-21T16:41:56.224Z,2.52
2018-06-21T16:46:50.764Z,2.52
2018-06-21T16:51:45.260Z,2.67
2018-06-21T16:56:39.903Z,2.70
2018-06-21T17:01:35.423Z,2.30
2018-06-21T17:11:36.481Z,2.60
2018-06-21T17:16:31.057Z,3.20
2018-06-21T17:21:25.600Z,3.08
2018-06-21T17:26:20.218Z,2.92
2018-06-21T17:31:14.773Z,2.90
2018-06-21T17:36:09.386Z,3.00
2018-06-21T17:41:04.047Z,2.72
2018-06-21T17:45:58.724Z,2.75
2018-06-21T17:50:53.262Z,2.87
2018-06-21T17:55:47.962Z,2.92
2018-06-21T18:00:42.747Z,2.90
2018-06-21T18:05:37.500Z,2.80
2018-06-21T18:10:32.115Z,2.75
2018-06-21T18:15:26.813Z,2.65
2018-06-21T18:20:21.422Z,2.27
2018-06-21T18:25:16.757Z,2.60
2018-06-21T18:30:11.567Z,2.87
2018-06-21T18:35:06.156Z,2.40
2018-06-21T18:40:00.877Z,2.22
2018-06-21T18:44:55.561Z,2.27
2018-06-21T18:49:50.334Z,2.42
2018-06-21T18:54:44.905Z,2.42
2018-06-21T18:59:39.476Z,2.45
2018-06-21T19:04:34.063Z,2.53
2018-06-21T19:09:33.760Z,2.10
2018-06-21T19:14:34.949Z,2.40
2018-06-21T19:19:29.611Z,1.97
2018-06-21T19:24:24.066Z,2.17
2018-06-21T19:29:18.663Z,2.50
2018-06-21T19:34:13.249Z,2.13
2018-06-21T19:39:10.560Z,2.40
2018-06-21T19:44:06.009Z,2.20
2018-06-21T19:49:00.707Z,2.03
2018-06-21T19:53:55.913Z,2.07
2018-06-21T19:58:50.809Z,1.80
2018-06-21T20:03:45.717Z,2.00
2018-06-21T20:08:40.240Z,2.10
2018-06-21T20:13:45.347Z,2.00
2018-06-21T20:18:39.994Z,1.83
2018-06-21T20:23:34.597Z,1.70
2018-06-21T20:28:29.292Z,1.60
2018-06-21T20:33:23.964Z,1.73
2018-06-21T20:38:22.372Z,1.57
2018-06-21T20:43:16.926Z,1.70
2018-06-21T20:48:11.441Z,1.90
2018-06-21T20:53:06.033Z,1.50
2018-06-21T20:58:00.680Z,1.70
2018-06-21T21:02:55.252Z,1.87
2018-06-21T21:07:53.135Z,1.90
2018-06-21T21:12:47.769Z,1.90
2018-06-21T21:17:42.673Z,1.97
2018-06-21T21:22:38.496Z,2.10
2018-06-21T21:27:33.086Z,1.70
2018-06-21T21:32:27.952Z,1.90
2018-06-21T21:37:22.933Z,2.00
2018-06-21T21:42:17.968Z,1.83
2018-06-21T21:47:12.514Z,1.60
2018-06-21T21:52:07.171Z,2.00
2018-06-21T21:57:01.876Z,1.70
2018-06-21T22:01:56.573Z,1.67
2018-06-21T22:06:51.096Z,1.70
2018-06-21T22:11:45.645Z,1.30
2018-06-21T22:16:40.227Z,1.60
2018-06-21T22:21:34.784Z,1.50
2018-06-21T22:26:29.228Z,1.60
2018-06-21T22:31:23.745Z,1.30
2018-06-21T22:36:18.293Z,1.60
2018-06-21T22:41:12.841Z,1.30
2018-06-21T22:46:08.170Z,1.53
2018-06-21T22:51:02.639Z,1.07
2018-06-21T22:55:57.128Z,1.10
2018-06-21T23:00:51.617Z,1.40
2018-06-21T23:05:46.159Z,1.20
2018-06-21T23:10:40.737Z,1.20
2018-06-21T23:15:35.067Z,1.10
2018-06-21T23:20:29.540Z,1.40
2018-06-21T23:25:24.117Z,1.27
2018-06-21T23:30:18.578Z,1.00
2018-06-21T23:35:13.153Z,1.20
2018-06-21T23:40:07.674Z,1.00
2018-06-21T23:45:02.147Z,1.23
2018-06-21T23:49:56.689Z,1.60
2018-06-21T23:54:51.206Z,1.37
2018-06-21T23:59:45.737Z,1.57
